FIN5BT EFHK-EDDF
Flight info
| Callsign | FIN5BT |
|---|---|
| Flight time | 2h 6m |
| Altitude | 38000 |
| Route | VALOX Y117 ROSAX DCT PIMEX P739 DEREX DCT GOSOT DCT BANUB DCT POVEL DCT RIMET/N0492F310 T157 KOKEB/N0452F230 T157 KERAX |
| Aircraft | A359/H-SDE2E3GHIJ3J4J5LM1ORWXY/LB1D1 |
Departure
| Time | 2026-05-07 06:51 |
|---|---|
| Airport | Helsinki Vantaa Airport (EFHK) |
Arrival
| Time | 2026-05-07 08:57 |
|---|---|
| Airport | Frankfurt Main Airport (EDDF) |
| Time | Latitude | Longitude | Altitude | Speed | Heading |
|---|---|---|---|---|---|
| 2026-05-07 06:32 | 60.31563 | 24.95807 | 173 ft | 0 kts | 137° |
| 2026-05-07 06:42 | 60.31567 | 24.95800 | 173 ft | 4 kts | 136° |
| 2026-05-07 06:42 | 60.31586 | 24.95762 | 173 ft | 4 kts | 134° |
| 2026-05-07 06:42 | 60.31604 | 24.95727 | 173 ft | 4 kts | 152° |
| 2026-05-07 06:42 | 60.31622 | 24.95710 | 173 ft | 4 kts | 171° |
| 2026-05-07 06:43 | 60.31637 | 24.95712 | 173 ft | 4 kts | 218° |
| 2026-05-07 06:43 | 60.31655 | 24.95743 | 173 ft | 4 kts | 224° |
| 2026-05-07 06:43 | 60.31673 | 24.95782 | 173 ft | 4 kts | 228° |
| 2026-05-07 06:43 | 60.31680 | 24.95798 | 173 ft | 0 kts | 227° |
| 2026-05-07 06:45 | 60.31679 | 24.95794 | 173 ft | 3 kts | 227° |
| 2026-05-07 06:46 | 60.31646 | 24.95705 | 173 ft | 9 kts | 250° |
| 2026-05-07 06:46 | 60.31665 | 24.95613 | 173 ft | 7 kts | 315° |
| 2026-05-07 06:46 | 60.31704 | 24.95539 | 174 ft | 7 kts | 306° |
| 2026-05-07 06:46 | 60.31707 | 24.95491 | 176 ft | 3 kts | 264° |
| 2026-05-07 06:47 | 60.31688 | 24.95426 | 177 ft | 10 kts | 232° |
| 2026-05-07 06:47 | 60.31616 | 24.95269 | 176 ft | 21 kts | 227° |
| 2026-05-07 06:47 | 60.31506 | 24.95027 | 175 ft | 25 kts | 227° |
| 2026-05-07 06:47 | 60.31382 | 24.94755 | 170 ft | 28 kts | 227° |
| 2026-05-07 06:48 | 60.31243 | 24.94450 | 165 ft | 31 kts | 227° |
| 2026-05-07 06:48 | 60.31097 | 24.94127 | 163 ft | 32 kts | 227° |
| 2026-05-07 06:48 | 60.31039 | 24.94000 | 164 ft | 8 kts | 227° |
| 2026-05-07 06:48 | 60.30992 | 24.93896 | 165 ft | 11 kts | 227° |
| 2026-05-07 06:49 | 60.30972 | 24.93773 | 166 ft | 9 kts | 283° |
| 2026-05-07 06:49 | 60.31010 | 24.93687 | 166 ft | 9 kts | 317° |
| 2026-05-07 06:49 | 60.31068 | 24.93593 | 165 ft | 11 kts | 336° |
| 2026-05-07 06:49 | 60.31131 | 24.93639 | 164 ft | 10 kts | 48° |
| 2026-05-07 06:50 | 60.31183 | 24.93753 | 165 ft | 11 kts | 47° |
| 2026-05-07 06:50 | 60.31243 | 24.93886 | 165 ft | 18 kts | 48° |
| 2026-05-07 06:50 | 60.31453 | 24.94351 | 168 ft | 77 kts | 47° |
| 2026-05-07 06:50 | 60.31947 | 24.95435 | 179 ft | 132 kts | 47° |
| 2026-05-07 06:51 | 60.32660 | 24.96993 | 462 ft | 154 kts | 46° |
| 2026-05-07 06:51 | 60.33371 | 24.98498 | 1200 ft | 151 kts | 49° |
| 2026-05-07 06:51 | 60.34135 | 25.00184 | 1593 ft | 175 kts | 51° |
| 2026-05-07 06:51 | 60.35013 | 25.02166 | 1901 ft | 204 kts | 50° |
| 2026-05-07 06:52 | 60.36033 | 25.04447 | 2209 ft | 233 kts | 50° |
| 2026-05-07 06:52 | 60.37162 | 25.06944 | 2763 ft | 246 kts | 49° |
| 2026-05-07 06:52 | 60.38329 | 25.09534 | 3621 ft | 252 kts | 50° |
| 2026-05-07 06:52 | 60.39214 | 25.12537 | 4349 ft | 255 kts | 74° |
| 2026-05-07 06:53 | 60.39201 | 25.16086 | 5148 ft | 258 kts | 106° |
| 2026-05-07 06:53 | 60.38458 | 25.19380 | 5970 ft | 259 kts | 118° |
| 2026-05-07 06:53 | 60.37608 | 25.22625 | 6759 ft | 264 kts | 117° |
| 2026-05-07 06:53 | 60.36771 | 25.25973 | 7559 ft | 269 kts | 116° |
| 2026-05-07 06:54 | 60.35945 | 25.29399 | 8354 ft | 274 kts | 116° |
| 2026-05-07 06:54 | 60.35084 | 25.32862 | 9121 ft | 279 kts | 120° |
| 2026-05-07 06:54 | 60.33830 | 25.35866 | 9863 ft | 284 kts | 143° |
| 2026-05-07 06:54 | 60.32043 | 25.37570 | 10495 ft | 292 kts | 168° |
| 2026-05-07 06:55 | 60.29966 | 25.37898 | 10900 ft | 309 kts | 182° |
| 2026-05-07 06:55 | 60.27742 | 25.37775 | 11234 ft | 328 kts | 183° |
| 2026-05-07 06:55 | 60.25421 | 25.37157 | 11541 ft | 345 kts | 195° |
| 2026-05-07 06:55 | 60.23178 | 25.35244 | 12003 ft | 355 kts | 212° |
| 2026-05-07 06:56 | 60.21279 | 25.32052 | 12709 ft | 358 kts | 228° |
| 2026-05-07 06:56 | 60.19706 | 25.28158 | 13465 ft | 360 kts | 233° |
| 2026-05-07 06:56 | 60.18166 | 25.24152 | 14161 ft | 363 kts | 232° |
| 2026-05-07 06:56 | 60.16595 | 25.20154 | 14878 ft | 365 kts | 232° |
| 2026-05-07 06:57 | 60.15029 | 25.16213 | 15560 ft | 367 kts | 232° |
| 2026-05-07 06:57 | 60.13426 | 25.12198 | 16286 ft | 368 kts | 232° |
| 2026-05-07 06:57 | 60.11816 | 25.08179 | 17060 ft | 370 kts | 232° |
| 2026-05-07 06:57 | 60.10201 | 25.04158 | 17816 ft | 371 kts | 232° |
| 2026-05-07 06:58 | 60.08575 | 25.00118 | 18563 ft | 373 kts | 232° |
| 2026-05-07 06:58 | 60.06948 | 24.96082 | 19247 ft | 374 kts | 232° |
| 2026-05-07 06:58 | 60.05305 | 24.92016 | 19916 ft | 376 kts | 232° |
| 2026-05-07 06:58 | 60.03650 | 24.87927 | 20588 ft | 377 kts | 232° |
| 2026-05-07 06:59 | 60.02020 | 24.83908 | 21250 ft | 379 kts | 232° |
| 2026-05-07 06:59 | 60.00329 | 24.79744 | 21920 ft | 380 kts | 232° |
| 2026-05-07 06:59 | 59.98654 | 24.75631 | 22561 ft | 382 kts | 232° |
| 2026-05-07 06:59 | 59.96976 | 24.71513 | 23239 ft | 384 kts | 232° |
| 2026-05-07 07:00 | 59.95281 | 24.67364 | 23836 ft | 386 kts | 232° |
| 2026-05-07 07:00 | 59.93578 | 24.63203 | 24339 ft | 389 kts | 232° |
| 2026-05-07 07:00 | 59.91858 | 24.59007 | 24797 ft | 392 kts | 232° |
| 2026-05-07 07:00 | 59.90140 | 24.54824 | 25276 ft | 395 kts | 232° |
| 2026-05-07 07:01 | 59.88391 | 24.50572 | 25769 ft | 398 kts | 232° |
| 2026-05-07 07:01 | 59.86632 | 24.46304 | 26233 ft | 401 kts | 231° |
| 2026-05-07 07:01 | 59.84853 | 24.41997 | 26746 ft | 403 kts | 231° |
| 2026-05-07 07:01 | 59.83065 | 24.37674 | 27212 ft | 406 kts | 231° |
| 2026-05-07 07:02 | 59.81265 | 24.33332 | 27680 ft | 409 kts | 231° |
| 2026-05-07 07:02 | 59.79447 | 24.28956 | 28147 ft | 411 kts | 231° |
| 2026-05-07 07:02 | 59.77616 | 24.24554 | 28595 ft | 414 kts | 231° |
| 2026-05-07 07:02 | 59.75773 | 24.20132 | 29030 ft | 417 kts | 231° |
| 2026-05-07 07:03 | 59.73884 | 24.15736 | 29442 ft | 420 kts | 228° |
| 2026-05-07 07:03 | 59.71723 | 24.11781 | 29834 ft | 424 kts | 220° |
| 2026-05-07 07:03 | 59.69396 | 24.08294 | 30211 ft | 427 kts | 218° |
| 2026-05-07 07:03 | 59.66970 | 24.04861 | 30529 ft | 430 kts | 217° |
| 2026-05-07 07:04 | 59.64510 | 24.01457 | 30830 ft | 432 kts | 217° |
| 2026-05-07 07:04 | 59.62042 | 23.98057 | 31151 ft | 434 kts | 217° |
| 2026-05-07 07:04 | 59.59560 | 23.94623 | 31463 ft | 436 kts | 217° |
| 2026-05-07 07:04 | 59.57088 | 23.91181 | 31889 ft | 434 kts | 217° |
| 2026-05-07 07:05 | 59.54618 | 23.87729 | 32345 ft | 433 kts | 218° |
| 2026-05-07 07:05 | 59.52168 | 23.84298 | 32733 ft | 432 kts | 218° |
| 2026-05-07 07:05 | 59.49723 | 23.80856 | 33132 ft | 431 kts | 218° |
| 2026-05-07 07:05 | 59.47408 | 23.77137 | 33505 ft | 428 kts | 224° |
| 2026-05-07 07:06 | 59.45305 | 23.73009 | 33912 ft | 426 kts | 227° |
| 2026-05-07 07:06 | 59.43299 | 23.68806 | 34234 ft | 426 kts | 229° |
| 2026-05-07 07:06 | 59.41299 | 23.64518 | 34468 ft | 427 kts | 229° |
| 2026-05-07 07:06 | 59.39297 | 23.60196 | 34676 ft | 428 kts | 229° |
| 2026-05-07 07:07 | 59.37290 | 23.55871 | 34891 ft | 429 kts | 229° |
| 2026-05-07 07:07 | 59.35270 | 23.51538 | 35115 ft | 430 kts | 229° |
| 2026-05-07 07:07 | 59.33240 | 23.47210 | 35335 ft | 431 kts | 229° |
| 2026-05-07 07:07 | 59.31203 | 23.42886 | 35544 ft | 432 kts | 229° |
| 2026-05-07 07:08 | 59.29160 | 23.38565 | 35759 ft | 433 kts | 229° |
| 2026-05-07 07:08 | 59.27108 | 23.34238 | 35965 ft | 434 kts | 229° |
| 2026-05-07 07:08 | 59.25049 | 23.29903 | 36179 ft | 435 kts | 229° |
| 2026-05-07 07:08 | 59.22985 | 23.25567 | 36378 ft | 436 kts | 229° |
| 2026-05-07 07:09 | 59.20916 | 23.21227 | 36585 ft | 437 kts | 229° |
| 2026-05-07 07:09 | 59.18842 | 23.16885 | 36794 ft | 437 kts | 229° |
| 2026-05-07 07:09 | 59.16765 | 23.12544 | 36990 ft | 438 kts | 229° |
| 2026-05-07 07:09 | 59.14685 | 23.08204 | 37172 ft | 439 kts | 229° |
| 2026-05-07 07:10 | 59.12596 | 23.03853 | 37373 ft | 440 kts | 229° |
| 2026-05-07 07:10 | 59.10506 | 22.99511 | 37561 ft | 440 kts | 229° |
| 2026-05-07 07:10 | 59.08407 | 22.95158 | 37760 ft | 441 kts | 229° |
| 2026-05-07 07:10 | 59.06308 | 22.90813 | 37934 ft | 442 kts | 229° |
| 2026-05-07 07:11 | 59.04198 | 22.86453 | 38048 ft | 444 kts | 228° |
| 2026-05-07 07:11 | 59.02074 | 22.82070 | 38047 ft | 446 kts | 228° |
| 2026-05-07 07:11 | 58.97814 | 22.73311 | 38051 ft | 445 kts | 228° |
| 2026-05-07 07:12 | 58.93579 | 22.64637 | 38046 ft | 445 kts | 228° |
| 2026-05-07 07:12 | 58.89314 | 22.55935 | 38040 ft | 445 kts | 228° |
| 2026-05-07 07:13 | 58.85046 | 22.47259 | 38041 ft | 445 kts | 228° |
| 2026-05-07 07:13 | 58.80767 | 22.38594 | 38032 ft | 445 kts | 228° |
| 2026-05-07 07:14 | 58.76509 | 22.30004 | 38026 ft | 445 kts | 228° |
| 2026-05-07 07:14 | 58.72224 | 22.21392 | 38025 ft | 445 kts | 228° |
| 2026-05-07 07:15 | 58.67932 | 22.12800 | 38033 ft | 445 kts | 228° |
| 2026-05-07 07:15 | 58.63628 | 22.04216 | 38024 ft | 445 kts | 227° |
| 2026-05-07 07:16 | 58.59325 | 21.95667 | 38025 ft | 445 kts | 227° |
| 2026-05-07 07:16 | 58.55012 | 21.87130 | 38021 ft | 445 kts | 227° |
| 2026-05-07 07:17 | 58.50693 | 21.78613 | 38029 ft | 445 kts | 227° |
| 2026-05-07 07:17 | 58.46368 | 21.70117 | 38032 ft | 445 kts | 227° |
| 2026-05-07 07:18 | 58.42066 | 21.61696 | 38028 ft | 446 kts | 227° |
| 2026-05-07 07:18 | 58.37732 | 21.53246 | 38026 ft | 446 kts | 227° |
| 2026-05-07 07:19 | 58.33394 | 21.44818 | 38028 ft | 446 kts | 227° |
| 2026-05-07 07:19 | 58.29036 | 21.36384 | 38029 ft | 446 kts | 227° |
| 2026-05-07 07:20 | 58.24686 | 21.27997 | 38025 ft | 446 kts | 227° |
| 2026-05-07 07:20 | 58.20320 | 21.19609 | 38027 ft | 446 kts | 227° |
| 2026-05-07 07:21 | 58.15971 | 21.11346 | 38026 ft | 446 kts | 226° |
| 2026-05-07 07:21 | 58.11572 | 21.03061 | 38025 ft | 446 kts | 226° |
| 2026-05-07 07:22 | 58.07170 | 20.94791 | 38026 ft | 446 kts | 226° |
| 2026-05-07 07:22 | 58.02765 | 20.86533 | 38025 ft | 446 kts | 226° |
| 2026-05-07 07:23 | 57.99093 | 20.79672 | 38026 ft | 446 kts | 226° |
| 2026-05-07 07:23 | 57.94680 | 20.71453 | 38022 ft | 446 kts | 226° |
| 2026-05-07 07:24 | 57.92468 | 20.67345 | 38024 ft | 446 kts | 226° |
| 2026-05-07 07:25 | 57.85350 | 20.54175 | 38020 ft | 446 kts | 226° |
| 2026-05-07 07:26 | 57.80911 | 20.46002 | 38025 ft | 446 kts | 226° |
| 2026-05-07 07:26 | 57.76476 | 20.37865 | 38028 ft | 446 kts | 226° |
| 2026-05-07 07:27 | 57.72031 | 20.29741 | 38021 ft | 446 kts | 226° |
| 2026-05-07 07:27 | 57.67577 | 20.21628 | 38024 ft | 446 kts | 226° |
| 2026-05-07 07:28 | 57.63287 | 20.13270 | 38029 ft | 446 kts | 230° |
| 2026-05-07 07:28 | 57.59254 | 20.04572 | 38023 ft | 446 kts | 230° |
| 2026-05-07 07:29 | 57.55176 | 19.95854 | 38022 ft | 446 kts | 230° |
| 2026-05-07 07:29 | 57.51043 | 19.87225 | 38024 ft | 446 kts | 229° |
| 2026-05-07 07:30 | 57.46887 | 19.78650 | 38022 ft | 446 kts | 229° |
| 2026-05-07 07:30 | 57.42723 | 19.70095 | 38025 ft | 446 kts | 229° |
| 2026-05-07 07:31 | 57.38582 | 19.61611 | 38024 ft | 446 kts | 229° |
| 2026-05-07 07:31 | 57.34402 | 19.53071 | 38024 ft | 446 kts | 229° |
| 2026-05-07 07:32 | 57.30218 | 19.44555 | 38027 ft | 447 kts | 229° |
| 2026-05-07 07:32 | 57.26032 | 19.36067 | 38023 ft | 447 kts | 229° |
| 2026-05-07 07:33 | 57.21863 | 19.27642 | 38025 ft | 447 kts | 229° |
| 2026-05-07 07:33 | 57.17664 | 19.19189 | 38025 ft | 447 kts | 228° |
| 2026-05-07 07:34 | 57.13447 | 19.10730 | 38024 ft | 447 kts | 228° |
| 2026-05-07 07:34 | 57.09237 | 19.02316 | 38024 ft | 447 kts | 228° |
| 2026-05-07 07:35 | 57.05012 | 18.93902 | 38026 ft | 447 kts | 228° |
| 2026-05-07 07:35 | 57.00782 | 18.85509 | 38023 ft | 448 kts | 228° |
| 2026-05-07 07:36 | 56.96575 | 18.77192 | 38029 ft | 448 kts | 228° |
| 2026-05-07 07:36 | 56.92512 | 18.69186 | 38023 ft | 448 kts | 228° |
| 2026-05-07 07:37 | 56.88260 | 18.60837 | 38026 ft | 448 kts | 228° |
| 2026-05-07 07:37 | 56.84005 | 18.52514 | 38023 ft | 448 kts | 227° |
| 2026-05-07 07:38 | 56.79741 | 18.44201 | 38020 ft | 448 kts | 227° |
| 2026-05-07 07:38 | 56.75473 | 18.35911 | 38027 ft | 448 kts | 227° |
| 2026-05-07 07:39 | 56.71193 | 18.27628 | 38020 ft | 449 kts | 227° |
| 2026-05-07 07:39 | 56.66934 | 18.19415 | 38037 ft | 449 kts | 227° |
| 2026-05-07 07:40 | 56.62639 | 18.11160 | 38027 ft | 449 kts | 227° |
| 2026-05-07 07:40 | 56.58341 | 18.02930 | 38032 ft | 449 kts | 227° |
| 2026-05-07 07:41 | 56.54039 | 17.94720 | 38024 ft | 449 kts | 227° |
| 2026-05-07 07:41 | 56.49720 | 17.86506 | 38030 ft | 450 kts | 227° |
| 2026-05-07 07:42 | 56.45422 | 17.78362 | 38026 ft | 450 kts | 227° |
| 2026-05-07 07:42 | 56.41090 | 17.70183 | 38032 ft | 450 kts | 227° |
| 2026-05-07 07:43 | 56.36751 | 17.62019 | 38030 ft | 450 kts | 227° |
| 2026-05-07 07:43 | 56.32406 | 17.53871 | 38032 ft | 450 kts | 227° |
| 2026-05-07 07:44 | 56.28052 | 17.45737 | 38025 ft | 451 kts | 226° |
| 2026-05-07 07:44 | 56.23725 | 17.37679 | 38033 ft | 451 kts | 226° |
| 2026-05-07 07:45 | 56.19358 | 17.29577 | 38035 ft | 451 kts | 226° |
| 2026-05-07 07:45 | 56.14986 | 17.21493 | 38031 ft | 451 kts | 226° |
| 2026-05-07 07:46 | 56.10607 | 17.13425 | 38034 ft | 451 kts | 226° |
| 2026-05-07 07:46 | 56.06222 | 17.05374 | 38039 ft | 451 kts | 226° |
| 2026-05-07 07:47 | 56.01831 | 16.97338 | 38036 ft | 452 kts | 226° |
| 2026-05-07 07:47 | 55.97427 | 16.89308 | 38036 ft | 452 kts | 226° |
| 2026-05-07 07:48 | 55.93022 | 16.81304 | 38035 ft | 452 kts | 226° |
| 2026-05-07 07:48 | 55.88638 | 16.73363 | 38030 ft | 453 kts | 226° |
| 2026-05-07 07:49 | 55.84206 | 16.65365 | 38032 ft | 453 kts | 226° |
| 2026-05-07 07:49 | 55.79775 | 16.57395 | 38033 ft | 453 kts | 226° |
| 2026-05-07 07:50 | 55.75337 | 16.49441 | 38035 ft | 453 kts | 226° |
| 2026-05-07 07:50 | 55.70887 | 16.41492 | 38034 ft | 454 kts | 225° |
| 2026-05-07 07:51 | 55.66430 | 16.33559 | 38036 ft | 454 kts | 225° |
| 2026-05-07 07:51 | 55.61967 | 16.25640 | 38035 ft | 454 kts | 225° |
| 2026-05-07 07:52 | 55.57522 | 16.17782 | 38037 ft | 455 kts | 225° |
| 2026-05-07 07:52 | 55.53038 | 16.09882 | 38034 ft | 455 kts | 225° |
| 2026-05-07 07:53 | 55.48552 | 16.02005 | 38038 ft | 455 kts | 225° |
| 2026-05-07 07:53 | 55.44056 | 15.94137 | 38036 ft | 456 kts | 225° |
| 2026-05-07 07:54 | 55.39552 | 15.86281 | 38037 ft | 456 kts | 225° |
| 2026-05-07 07:54 | 55.35039 | 15.78436 | 38037 ft | 456 kts | 225° |
| 2026-05-07 07:55 | 55.30512 | 15.70594 | 38037 ft | 457 kts | 225° |
| 2026-05-07 07:55 | 55.26011 | 15.62824 | 38038 ft | 457 kts | 225° |
| 2026-05-07 07:56 | 55.21473 | 15.55016 | 38042 ft | 457 kts | 225° |
| 2026-05-07 07:56 | 55.16929 | 15.47224 | 38042 ft | 458 kts | 225° |
| 2026-05-07 07:57 | 55.12676 | 15.39954 | 38042 ft | 458 kts | 225° |
| 2026-05-07 07:57 | 55.08131 | 15.32211 | 38044 ft | 458 kts | 225° |
| 2026-05-07 07:58 | 55.03557 | 15.24445 | 38043 ft | 458 kts | 224° |
| 2026-05-07 07:58 | 54.98981 | 15.16701 | 38043 ft | 458 kts | 224° |
| 2026-05-07 07:59 | 54.95171 | 15.10273 | 38044 ft | 459 kts | 224° |
| 2026-05-07 07:59 | 54.90579 | 15.02550 | 38042 ft | 459 kts | 224° |
| 2026-05-07 08:00 | 54.85972 | 14.94828 | 38045 ft | 459 kts | 224° |
| 2026-05-07 08:00 | 54.81396 | 14.87182 | 38042 ft | 459 kts | 224° |
| 2026-05-07 08:01 | 54.76779 | 14.79517 | 38042 ft | 460 kts | 224° |
| 2026-05-07 08:01 | 54.72138 | 14.71902 | 38029 ft | 460 kts | 224° |
| 2026-05-07 08:02 | 54.67485 | 14.64293 | 38033 ft | 460 kts | 224° |
| 2026-05-07 08:02 | 54.62832 | 14.56697 | 38037 ft | 460 kts | 224° |
| 2026-05-07 08:03 | 54.58174 | 14.49114 | 38036 ft | 460 kts | 224° |
| 2026-05-07 08:03 | 54.53532 | 14.41581 | 38034 ft | 460 kts | 223° |
| 2026-05-07 08:04 | 54.48866 | 14.34035 | 38031 ft | 461 kts | 223° |
| 2026-05-07 08:04 | 54.44198 | 14.26510 | 38041 ft | 461 kts | 223° |
| 2026-05-07 08:05 | 54.39494 | 14.18978 | 38045 ft | 461 kts | 223° |
| 2026-05-07 08:05 | 54.34780 | 14.11465 | 38039 ft | 462 kts | 223° |
| 2026-05-07 08:06 | 54.30191 | 14.04170 | 38042 ft | 462 kts | 223° |
| 2026-05-07 08:06 | 54.25466 | 13.96678 | 38033 ft | 463 kts | 223° |
| 2026-05-07 08:07 | 54.20758 | 13.89238 | 38037 ft | 463 kts | 223° |
| 2026-05-07 08:07 | 54.16000 | 13.81744 | 38034 ft | 464 kts | 223° |
| 2026-05-07 08:08 | 54.11287 | 13.74345 | 38037 ft | 464 kts | 223° |
| 2026-05-07 08:08 | 54.06503 | 13.66858 | 38024 ft | 464 kts | 223° |
| 2026-05-07 08:09 | 54.01768 | 13.59472 | 38028 ft | 464 kts | 223° |
| 2026-05-07 08:09 | 53.97003 | 13.52064 | 38024 ft | 465 kts | 223° |
| 2026-05-07 08:10 | 53.92223 | 13.44656 | 38024 ft | 465 kts | 223° |
| 2026-05-07 08:10 | 53.88977 | 13.39640 | 38030 ft | 465 kts | 223° |
| 2026-05-07 08:11 | 53.84514 | 13.32761 | 38019 ft | 465 kts | 222° |
| 2026-05-07 08:11 | 53.79722 | 13.25397 | 38015 ft | 466 kts | 222° |
| 2026-05-07 08:12 | 53.74944 | 13.18078 | 38014 ft | 466 kts | 222° |
| 2026-05-07 08:12 | 53.70129 | 13.10726 | 38014 ft | 466 kts | 222° |
| 2026-05-07 08:13 | 53.65311 | 13.03394 | 38016 ft | 467 kts | 222° |
| 2026-05-07 08:13 | 53.60483 | 12.96070 | 38008 ft | 467 kts | 222° |
| 2026-05-07 08:14 | 53.55651 | 12.88764 | 38009 ft | 467 kts | 222° |
| 2026-05-07 08:14 | 53.50805 | 12.81460 | 38008 ft | 467 kts | 222° |
| 2026-05-07 08:15 | 53.45990 | 12.74225 | 38009 ft | 468 kts | 222° |
| 2026-05-07 08:15 | 53.41137 | 12.66956 | 38004 ft | 468 kts | 222° |
| 2026-05-07 08:16 | 53.36270 | 12.59690 | 38005 ft | 468 kts | 222° |
| 2026-05-07 08:16 | 53.31404 | 12.52449 | 38003 ft | 468 kts | 221° |
| 2026-05-07 08:17 | 53.26529 | 12.45216 | 37998 ft | 469 kts | 221° |
| 2026-05-07 08:17 | 53.21645 | 12.37995 | 37994 ft | 469 kts | 221° |
| 2026-05-07 08:18 | 53.16751 | 12.30781 | 37991 ft | 469 kts | 221° |
| 2026-05-07 08:18 | 53.11883 | 12.23628 | 37998 ft | 470 kts | 221° |
| 2026-05-07 08:19 | 53.06976 | 12.16441 | 37996 ft | 470 kts | 221° |
| 2026-05-07 08:19 | 53.02061 | 12.09264 | 37986 ft | 470 kts | 221° |
| 2026-05-07 08:20 | 52.97132 | 12.02088 | 37993 ft | 470 kts | 221° |
| 2026-05-07 08:20 | 52.92195 | 11.94925 | 37997 ft | 471 kts | 221° |
| 2026-05-07 08:21 | 52.87290 | 11.87830 | 37986 ft | 471 kts | 221° |
| 2026-05-07 08:21 | 52.82344 | 11.80700 | 37984 ft | 471 kts | 221° |
| 2026-05-07 08:22 | 52.77387 | 11.73575 | 37987 ft | 472 kts | 221° |
| 2026-05-07 08:22 | 52.72415 | 11.66450 | 37990 ft | 472 kts | 221° |
| 2026-05-07 08:23 | 52.67473 | 11.59391 | 37993 ft | 473 kts | 221° |
| 2026-05-07 08:23 | 52.62493 | 11.52300 | 37990 ft | 473 kts | 221° |
| 2026-05-07 08:24 | 52.57515 | 11.45233 | 37983 ft | 473 kts | 221° |
| 2026-05-07 08:24 | 52.52517 | 11.38160 | 37988 ft | 474 kts | 220° |
| 2026-05-07 08:25 | 52.47521 | 11.31113 | 37983 ft | 474 kts | 220° |
| 2026-05-07 08:25 | 52.42510 | 11.24065 | 37985 ft | 474 kts | 220° |
| 2026-05-07 08:26 | 52.35007 | 11.13555 | 37985 ft | 475 kts | 220° |
| 2026-05-07 08:26 | 52.29979 | 11.06539 | 37984 ft | 475 kts | 220° |
| 2026-05-07 08:27 | 52.24947 | 10.99539 | 37982 ft | 475 kts | 220° |
| 2026-05-07 08:27 | 52.19901 | 10.92540 | 37987 ft | 476 kts | 220° |
| 2026-05-07 08:28 | 52.14873 | 10.85618 | 37982 ft | 476 kts | 219° |
| 2026-05-07 08:28 | 52.09245 | 10.79931 | 37987 ft | 476 kts | 207° |
| 2026-05-07 08:29 | 52.03283 | 10.75217 | 37985 ft | 477 kts | 206° |
| 2026-05-07 08:29 | 51.97269 | 10.70625 | 37984 ft | 477 kts | 206° |
| 2026-05-07 08:30 | 51.91263 | 10.66023 | 37975 ft | 477 kts | 206° |
| 2026-05-07 08:30 | 51.85262 | 10.61402 | 37977 ft | 477 kts | 206° |
| 2026-05-07 08:31 | 51.79262 | 10.56785 | 37970 ft | 478 kts | 206° |
| 2026-05-07 08:31 | 51.73283 | 10.52198 | 37973 ft | 478 kts | 206° |
| 2026-05-07 08:32 | 51.67265 | 10.47596 | 37966 ft | 478 kts | 206° |
| 2026-05-07 08:32 | 51.61249 | 10.43010 | 37964 ft | 478 kts | 206° |
| 2026-05-07 08:33 | 51.55227 | 10.38434 | 37962 ft | 479 kts | 206° |
| 2026-05-07 08:33 | 51.52221 | 10.36154 | 37788 ft | 479 kts | 206° |
| 2026-05-07 08:33 | 51.49201 | 10.33867 | 37232 ft | 480 kts | 205° |
| 2026-05-07 08:34 | 51.46183 | 10.31585 | 36597 ft | 480 kts | 205° |
| 2026-05-07 08:34 | 51.43169 | 10.29308 | 35971 ft | 479 kts | 205° |
| 2026-05-07 08:34 | 51.40167 | 10.27043 | 35348 ft | 478 kts | 205° |
| 2026-05-07 08:34 | 51.37156 | 10.24815 | 34701 ft | 477 kts | 203° |
| 2026-05-07 08:35 | 51.34023 | 10.23041 | 34020 ft | 478 kts | 195° |
| 2026-05-07 08:35 | 51.30767 | 10.22020 | 33230 ft | 478 kts | 186° |
| 2026-05-07 08:35 | 51.27453 | 10.21680 | 32454 ft | 478 kts | 182° |
| 2026-05-07 08:35 | 51.24110 | 10.21557 | 31692 ft | 479 kts | 180° |
| 2026-05-07 08:36 | 51.20770 | 10.21518 | 30943 ft | 480 kts | 179° |
| 2026-05-07 08:36 | 51.17423 | 10.21501 | 30219 ft | 482 kts | 178° |
| 2026-05-07 08:36 | 51.14102 | 10.21481 | 29419 ft | 483 kts | 178° |
| 2026-05-07 08:36 | 51.10744 | 10.21460 | 28593 ft | 482 kts | 178° |
| 2026-05-07 08:37 | 51.07403 | 10.21427 | 27802 ft | 480 kts | 179° |
| 2026-05-07 08:37 | 51.04046 | 10.21380 | 27035 ft | 480 kts | 179° |
| 2026-05-07 08:37 | 51.00722 | 10.21323 | 26320 ft | 478 kts | 179° |
| 2026-05-07 08:37 | 50.97397 | 10.21262 | 25630 ft | 475 kts | 179° |
| 2026-05-07 08:38 | 50.94107 | 10.21201 | 24957 ft | 471 kts | 179° |
| 2026-05-07 08:38 | 50.90870 | 10.21142 | 24315 ft | 468 kts | 180° |
| 2026-05-07 08:38 | 50.87592 | 10.21034 | 23664 ft | 465 kts | 182° |
| 2026-05-07 08:38 | 50.84431 | 10.20438 | 22947 ft | 462 kts | 190° |
| 2026-05-07 08:39 | 50.81330 | 10.19095 | 22205 ft | 459 kts | 199° |
| 2026-05-07 08:39 | 50.78443 | 10.17007 | 21483 ft | 456 kts | 209° |
| 2026-05-07 08:39 | 50.75823 | 10.14212 | 20774 ft | 452 kts | 218° |
| 2026-05-07 08:39 | 50.73550 | 10.10815 | 20099 ft | 449 kts | 228° |
| 2026-05-07 08:40 | 50.71668 | 10.06918 | 19433 ft | 445 kts | 237° |
| 2026-05-07 08:40 | 50.70214 | 10.02653 | 18784 ft | 441 kts | 246° |
| 2026-05-07 08:40 | 50.69200 | 9.98104 | 18135 ft | 436 kts | 255° |
| 2026-05-07 08:40 | 50.68645 | 9.93424 | 17410 ft | 432 kts | 264° |
| 2026-05-07 08:41 | 50.68281 | 9.88887 | 16756 ft | 403 kts | 261° |
| 2026-05-07 08:41 | 50.67688 | 9.84708 | 16185 ft | 379 kts | 255° |
| 2026-05-07 08:41 | 50.66827 | 9.80904 | 15658 ft | 358 kts | 247° |
| 2026-05-07 08:41 | 50.65812 | 9.77428 | 15126 ft | 341 kts | 245° |
| 2026-05-07 08:42 | 50.64772 | 9.74171 | 14611 ft | 326 kts | 242° |
| 2026-05-07 08:42 | 50.63570 | 9.71250 | 14091 ft | 320 kts | 234° |
| 2026-05-07 08:42 | 50.62089 | 9.68639 | 13555 ft | 319 kts | 225° |
| 2026-05-07 08:42 | 50.60364 | 9.66455 | 12949 ft | 318 kts | 215° |
| 2026-05-07 08:43 | 50.58452 | 9.64781 | 12381 ft | 316 kts | 205° |
| 2026-05-07 08:43 | 50.56404 | 9.63501 | 11820 ft | 313 kts | 201° |
| 2026-05-07 08:43 | 50.54383 | 9.62326 | 11312 ft | 305 kts | 201° |
| 2026-05-07 08:43 | 50.52447 | 9.61091 | 10811 ft | 297 kts | 206° |
| 2026-05-07 08:44 | 50.50664 | 9.59508 | 10342 ft | 293 kts | 215° |
| 2026-05-07 08:44 | 50.49089 | 9.57506 | 9842 ft | 290 kts | 224° |
| 2026-05-07 08:44 | 50.47751 | 9.55157 | 9313 ft | 287 kts | 233° |
| 2026-05-07 08:44 | 50.46675 | 9.52541 | 8773 ft | 284 kts | 242° |
| 2026-05-07 08:45 | 50.45916 | 9.49692 | 8278 ft | 281 kts | 253° |
| 2026-05-07 08:45 | 50.45347 | 9.46767 | 7936 ft | 280 kts | 255° |
| 2026-05-07 08:45 | 50.44793 | 9.43830 | 7564 ft | 282 kts | 255° |
| 2026-05-07 08:45 | 50.44235 | 9.40887 | 7188 ft | 280 kts | 255° |
| 2026-05-07 08:46 | 50.43684 | 9.37991 | 6992 ft | 274 kts | 255° |
| 2026-05-07 08:46 | 50.43139 | 9.35124 | 6964 ft | 275 kts | 255° |
| 2026-05-07 08:46 | 50.42593 | 9.32251 | 6966 ft | 275 kts | 255° |
| 2026-05-07 08:46 | 50.42045 | 9.29380 | 6965 ft | 275 kts | 255° |
| 2026-05-07 08:47 | 50.41682 | 9.27476 | 6969 ft | 275 kts | 255° |
| 2026-05-07 08:47 | 50.40945 | 9.23638 | 6838 ft | 275 kts | 254° |
| 2026-05-07 08:47 | 50.40313 | 9.20804 | 6473 ft | 275 kts | 251° |
| 2026-05-07 08:47 | 50.39862 | 9.18945 | 6214 ft | 274 kts | 251° |
| 2026-05-07 08:48 | 50.38978 | 9.15260 | 5711 ft | 272 kts | 251° |
| 2026-05-07 08:48 | 50.38537 | 9.13388 | 5448 ft | 271 kts | 251° |
| 2026-05-07 08:48 | 50.37812 | 9.10677 | 5042 ft | 270 kts | 242° |
| 2026-05-07 08:48 | 50.36548 | 9.08520 | 4668 ft | 272 kts | 216° |
| 2026-05-07 08:49 | 50.34895 | 9.07159 | 4301 ft | 272 kts | 204° |
| 2026-05-07 08:49 | 50.33147 | 9.06011 | 4021 ft | 270 kts | 204° |
| 2026-05-07 08:49 | 50.31411 | 9.04897 | 3987 ft | 270 kts | 204° |
| 2026-05-07 08:49 | 50.29708 | 9.03804 | 3986 ft | 270 kts | 203° |
| 2026-05-07 08:50 | 50.27969 | 9.02688 | 3988 ft | 270 kts | 204° |
| 2026-05-07 08:50 | 50.26229 | 9.01572 | 3984 ft | 270 kts | 204° |
| 2026-05-07 08:50 | 50.24491 | 9.00462 | 3988 ft | 269 kts | 203° |
| 2026-05-07 08:50 | 50.22757 | 8.99357 | 3984 ft | 269 kts | 204° |
| 2026-05-07 08:51 | 50.21021 | 8.98251 | 3990 ft | 270 kts | 204° |
| 2026-05-07 08:51 | 50.19283 | 8.97141 | 3997 ft | 270 kts | 204° |
| 2026-05-07 08:51 | 50.17550 | 8.96033 | 3997 ft | 269 kts | 204° |
| 2026-05-07 08:51 | 50.15886 | 8.94687 | 3991 ft | 268 kts | 215° |
| 2026-05-07 08:52 | 50.14463 | 8.92949 | 3997 ft | 252 kts | 223° |
| 2026-05-07 08:52 | 50.13205 | 8.91226 | 3995 ft | 239 kts | 223° |
| 2026-05-07 08:52 | 50.11967 | 8.89527 | 4003 ft | 234 kts | 223° |
| 2026-05-07 08:52 | 50.10933 | 8.87586 | 3998 ft | 227 kts | 243° |
| 2026-05-07 08:53 | 50.10339 | 8.85423 | 4005 ft | 209 kts | 254° |
| 2026-05-07 08:53 | 50.09898 | 8.83351 | 3943 ft | 195 kts | 253° |
| 2026-05-07 08:53 | 50.09423 | 8.81380 | 3655 ft | 194 kts | 251° |
| 2026-05-07 08:53 | 50.08944 | 8.79410 | 3307 ft | 194 kts | 252° |
| 2026-05-07 08:54 | 50.08485 | 8.77462 | 2980 ft | 188 kts | 252° |
| 2026-05-07 08:54 | 50.08039 | 8.75589 | 2741 ft | 183 kts | 252° |
| 2026-05-07 08:54 | 50.07601 | 8.73757 | 2472 ft | 175 kts | 252° |
| 2026-05-07 08:54 | 50.07197 | 8.72058 | 2230 ft | 160 kts | 253° |
| 2026-05-07 08:55 | 50.06827 | 8.70499 | 2024 ft | 149 kts | 253° |
| 2026-05-07 08:55 | 50.06475 | 8.69021 | 1833 ft | 144 kts | 253° |
| 2026-05-07 08:55 | 50.06129 | 8.67561 | 1634 ft | 144 kts | 253° |
| 2026-05-07 08:55 | 50.05779 | 8.66098 | 1435 ft | 144 kts | 253° |
| 2026-05-07 08:56 | 50.05437 | 8.64657 | 1218 ft | 142 kts | 252° |
| 2026-05-07 08:56 | 50.05094 | 8.63220 | 1021 ft | 141 kts | 252° |
| 2026-05-07 08:56 | 50.04754 | 8.61793 | 824 ft | 140 kts | 252° |
| 2026-05-07 08:56 | 50.04417 | 8.60380 | 648 ft | 139 kts | 252° |
| 2026-05-07 08:57 | 50.04080 | 8.58965 | 440 ft | 139 kts | 251° |
| 2026-05-07 08:57 | 50.03752 | 8.57594 | 369 ft | 129 kts | 249° |
| 2026-05-07 08:57 | 50.03506 | 8.56560 | 363 ft | 82 kts | 250° |
| 2026-05-07 08:57 | 50.03369 | 8.55989 | 359 ft | 30 kts | 249° |
| 2026-05-07 08:58 | 50.03333 | 8.55837 | 355 ft | 17 kts | 252° |
| 2026-05-07 08:58 | 50.03310 | 8.55632 | 351 ft | 20 kts | 267° |
| 2026-05-07 08:58 | 50.03320 | 8.55444 | 358 ft | 0 kts | 278° |
| 2026-05-07 08:59 | 50.03323 | 8.55414 | 356 ft | 4 kts | 279° |
| 2026-05-07 08:59 | 50.03330 | 8.55351 | 351 ft | 7 kts | 280° |
| 2026-05-07 08:59 | 50.03341 | 8.55257 | 349 ft | 10 kts | 280° |
| 2026-05-07 08:59 | 50.03368 | 8.55157 | 356 ft | 8 kts | 328° |
| 2026-05-07 09:00 | 50.03409 | 8.55170 | 359 ft | 5 kts | 38° |
| 2026-05-07 09:00 | 50.03436 | 8.55239 | 360 ft | 10 kts | 68° |
| 2026-05-07 09:00 | 50.03463 | 8.55349 | 356 ft | 12 kts | 69° |
| 2026-05-07 09:00 | 50.03494 | 8.55479 | 360 ft | 14 kts | 70° |
| 2026-05-07 09:01 | 50.03529 | 8.55627 | 359 ft | 16 kts | 70° |
| 2026-05-07 09:01 | 50.03568 | 8.55791 | 361 ft | 16 kts | 69° |
| 2026-05-07 09:01 | 50.03609 | 8.55960 | 363 ft | 17 kts | 69° |
| 2026-05-07 09:01 | 50.03650 | 8.56134 | 365 ft | 18 kts | 69° |
| 2026-05-07 09:02 | 50.03695 | 8.56323 | 362 ft | 20 kts | 70° |
| 2026-05-07 09:02 | 50.03745 | 8.56531 | 366 ft | 21 kts | 69° |
| 2026-05-07 09:02 | 50.03799 | 8.56756 | 364 ft | 23 kts | 69° |
| 2026-05-07 09:02 | 50.03855 | 8.56992 | 366 ft | 24 kts | 70° |
| 2026-05-07 09:03 | 50.03911 | 8.57227 | 368 ft | 23 kts | 69° |
| 2026-05-07 09:03 | 50.03966 | 8.57452 | 374 ft | 22 kts | 69° |
| 2026-05-07 09:03 | 50.04020 | 8.57684 | 375 ft | 23 kts | 70° |
| 2026-05-07 09:03 | 50.04077 | 8.57921 | 376 ft | 24 kts | 69° |
| 2026-05-07 09:04 | 50.04138 | 8.58173 | 374 ft | 25 kts | 69° |
| 2026-05-07 09:04 | 50.04202 | 8.58440 | 375 ft | 26 kts | 69° |
| 2026-05-07 09:04 | 50.04267 | 8.58709 | 376 ft | 27 kts | 70° |
| 2026-05-07 09:04 | 50.04331 | 8.58978 | 382 ft | 26 kts | 69° |
| 2026-05-07 09:05 | 50.04393 | 8.59234 | 382 ft | 19 kts | 70° |
| 2026-05-07 09:05 | 50.04422 | 8.59356 | 382 ft | 9 kts | 69° |
| 2026-05-07 09:05 | 50.04450 | 8.59454 | 382 ft | 10 kts | 49° |
| 2026-05-07 09:05 | 50.04518 | 8.59471 | 380 ft | 11 kts | 356° |
| 2026-05-07 09:06 | 50.04538 | 8.59469 | 380 ft | 0 kts | 357° |
| 2026-05-07 09:06 | 50.04539 | 8.59469 | 380 ft | 1 kts | 357° |
| 2026-05-07 09:07 | 50.04579 | 8.59466 | 379 ft | 10 kts | 358° |
| 2026-05-07 09:07 | 50.04672 | 8.59453 | 378 ft | 15 kts | 348° |
| 2026-05-07 09:07 | 50.04761 | 8.59408 | 378 ft | 10 kts | 340° |
| 2026-05-07 09:07 | 50.04834 | 8.59367 | 376 ft | 14 kts | 340° |
| 2026-05-07 09:08 | 50.04939 | 8.59370 | 376 ft | 16 kts | 354° |
| 2026-05-07 09:08 | 50.05029 | 8.59320 | 370 ft | 14 kts | 339° |
| 2026-05-07 09:08 | 50.05076 | 8.59280 | 372 ft | 7 kts | 315° |
| 2026-05-07 09:08 | 50.05077 | 8.59195 | 369 ft | 10 kts | 257° |
| 2026-05-07 09:09 | 50.05051 | 8.59091 | 370 ft | 11 kts | 249° |
| 2026-05-07 09:09 | 50.05021 | 8.58968 | 370 ft | 13 kts | 250° |
| 2026-05-07 09:09 | 50.04988 | 8.58827 | 371 ft | 15 kts | 250° |
| 2026-05-07 09:09 | 50.04972 | 8.58759 | 371 ft | 5 kts | 250° |
| 2026-05-07 09:10 | 50.04965 | 8.58704 | 370 ft | 4 kts | 280° |
| 2026-05-07 09:10 | 50.04983 | 8.58673 | 372 ft | 4 kts | 327° |
| 2026-05-07 09:10 | 50.05013 | 8.58658 | 372 ft | 5 kts | 341° |
| 2026-05-07 09:10 | 50.05017 | 8.58655 | 371 ft | 0 kts | 341° |
| 2026-05-07 09:11 | 50.05018 | 8.58655 | 370 ft | 1 kts | 341° |
| 2026-05-07 09:11 | 50.05036 | 8.58645 | 368 ft | 1 kts | 340° |
| 2026-05-07 09:11 | 50.05044 | 8.58640 | 366 ft | 0 kts | 340° |
| 2026-05-07 09:12 | 50.05045 | 8.58640 | 366 ft | 0 kts | 340° |